KGYL

Glencoe Municipal Airport

Glencoe, Minnesota, USA
METAR KGYL 230055Z AUTO 31009KT 10SM CLR 09/M03 A3017 RMK AO2 T00871033
Observed Flight Rules
Oct-23 @ 00:55 UTC (7 minutes ago) Visual Flight Rules
Wind Visibility Clouds
310° at 9 knots 10 miles
  • Clear skies
Temperatures Readings
Current 9°C / 48°F
Dewpoint -3°C / 27°F
Humidity 43%
Altimeter 30.17" Hg
Pressure 1022 hPa
Elevation 302
METAR KGYL 230055Z AUTO 31009KT 10SM CLR 09/M03 A3017 RMK AO2 T00871033
Observed Flight Rules
Oct-23 @ 00:55 UTC
(7 minutes ago)
VFR
Wind Visibility
310° at 9 knots 10 miles
Clouds
  • Clear skies
Temperature Dewpoint
9°C / 48°F -3°C / 27°F
Humidity Altimeter Pressure
43% 30.17" Hg 1022 hPa